sensor_id;sensor_type;location;lat;lon;timestamp;P1;durP1;ratioP1;P2;durP2;ratioP2
19643;SDS011;9970;-36.854;174.870;2023-02-03T00:00:50;2.20;;;2.20;;
19643;SDS011;9970;-36.854;174.870;2023-02-03T00:03:24;2.20;;;2.20;;
19643;SDS011;9970;-36.854;174.870;2023-02-03T00:05:59;2.20;;;2.20;;
19643;SDS011;9970;-36.854;174.870;2023-02-03T00:08:33;2.00;;;2.00;;
19643;SDS011;9970;-36.854;174.870;2023-02-03T00:11:07;2.00;;;2.00;;
19643;SDS011;9970;-36.854;174.870;2023-02-03T00:13:40;2.10;;;2.10;;
19643;SDS011;9970;-36.854;174.870;2023-02-03T00:16:13;2.20;;;2.20;;
19643;SDS011;9970;-36.854;174.870;2023-02-03T00:18:46;2.20;;;2.20;;
19643;SDS011;9970;-36.854;174.870;2023-02-03T00:21:19;2.20;;;2.20;;
19643;SDS011;9970;-36.854;174.870;2023-02-03T00:23:52;2.10;;;2.10;;
19643;SDS011;9970;-36.854;174.870;2023-02-03T00:26:25;2.10;;;2.10;;
19643;SDS011;9970;-36.854;174.870;2023-02-03T00:28:58;2.20;;;2.20;;
19643;SDS011;9970;-36.854;174.870;2023-02-03T00:31:31;2.40;;;2.40;;
19643;SDS011;9970;-36.854;174.870;2023-02-03T00:34:04;2.40;;;2.40;;
19643;SDS011;9970;-36.854;174.870;2023-02-03T00:36:37;2.20;;;2.20;;
19643;SDS011;9970;-36.854;174.870;2023-02-03T00:39:10;2.30;;;2.30;;
19643;SDS011;9970;-36.854;174.870;2023-02-03T00:41:43;2.20;;;2.20;;
19643;SDS011;9970;-36.854;174.870;2023-02-03T00:44:16;2.00;;;2.00;;
19643;SDS011;9970;-36.854;174.870;2023-02-03T00:46:49;1.90;;;1.90;;
19643;SDS011;9970;-36.854;174.870;2023-02-03T00:49:24;2.00;;;2.00;;
19643;SDS011;9970;-36.854;174.870;2023-02-03T00:52:01;2.00;;;2.00;;
19643;SDS011;9970;-36.854;174.870;2023-02-03T00:54:37;2.10;;;2.10;;
19643;SDS011;9970;-36.854;174.870;2023-02-03T00:57:11;2.20;;;2.20;;
19643;SDS011;9970;-36.854;174.870;2023-02-03T00:59:44;2.10;;;2.10;;
19643;SDS011;9970;-36.854;174.870;2023-02-03T01:02:17;2.30;;;2.30;;
19643;SDS011;9970;-36.854;174.870;2023-02-03T01:04:50;2.30;;;2.30;;
19643;SDS011;9970;-36.854;174.870;2023-02-03T01:07:23;2.30;;;2.30;;
19643;SDS011;9970;-36.854;174.870;2023-02-03T01:09:56;2.10;;;2.10;;
19643;SDS011;9970;-36.854;174.870;2023-02-03T01:12:29;2.40;;;2.40;;
19643;SDS011;9970;-36.854;174.870;2023-02-03T01:15:03;2.10;;;2.10;;
19643;SDS011;9970;-36.854;174.870;2023-02-03T01:17:41;2.20;;;2.20;;
19643;SDS011;9970;-36.854;174.870;2023-02-03T01:20:14;2.17;;;2.17;;
19643;SDS011;9970;-36.854;174.870;2023-02-03T01:22:47;2.20;;;2.20;;
19643;SDS011;9970;-36.854;174.870;2023-02-03T01:25:20;2.20;;;2.20;;
19643;SDS011;9970;-36.854;174.870;2023-02-03T01:27:53;2.37;;;2.37;;
19643;SDS011;9970;-36.854;174.870;2023-02-03T01:30:26;2.30;;;2.30;;
19643;SDS011;9970;-36.854;174.870;2023-02-03T01:32:59;2.30;;;2.30;;
19643;SDS011;9970;-36.854;174.870;2023-02-03T01:35:32;2.30;;;2.30;;
19643;SDS011;9970;-36.854;174.870;2023-02-03T01:38:05;2.30;;;2.30;;
19643;SDS011;9970;-36.854;174.870;2023-02-03T01:40:43;2.30;;;2.30;;
19643;SDS011;9970;-36.854;174.870;2023-02-03T01:43:29;2.60;;;2.60;;
19643;SDS011;9970;-36.854;174.870;2023-02-03T01:46:17;2.43;;;2.43;;
19643;SDS011;9970;-36.854;174.870;2023-02-03T01:48:49;2.30;;;2.30;;
19643;SDS011;9970;-36.854;174.870;2023-02-03T01:54:27;2.50;;;2.50;;
19643;SDS011;9970;-36.854;174.870;2023-02-03T01:57:03;2.50;;;2.50;;
19643;SDS011;9970;-36.854;174.870;2023-02-03T01:59:37;2.40;;;2.40;;
19643;SDS011;9970;-36.854;174.870;2023-02-03T02:02:13;2.60;;;2.60;;
19643;SDS011;9970;-36.854;174.870;2023-02-03T02:04:51;2.40;;;2.40;;
19643;SDS011;9970;-36.854;174.870;2023-02-03T02:07:22;2.40;;;2.40;;
19643;SDS011;9970;-36.854;174.870;2023-02-03T02:09:55;2.20;;;2.20;;
19643;SDS011;9970;-36.854;174.870;2023-02-03T02:12:29;2.20;;;2.20;;
19643;SDS011;9970;-36.854;174.870;2023-02-03T02:15:02;2.30;;;2.30;;
19643;SDS011;9970;-36.854;174.870;2023-02-03T02:20:23;2.30;;;2.30;;
19643;SDS011;9970;-36.854;174.870;2023-02-03T02:48:19;3.20;;;3.20;;
19643;SDS011;9970;-36.854;174.870;2023-02-03T02:50:54;2.83;;;2.83;;
19643;SDS011;9970;-36.854;174.870;2023-02-03T02:53:28;3.00;;;3.00;;
19643;SDS011;9970;-36.854;174.870;2023-02-03T02:56:04;3.00;;;3.00;;
19643;SDS011;9970;-36.854;174.870;2023-02-03T02:58:39;2.90;;;2.90;;
19643;SDS011;9970;-36.854;174.870;2023-02-03T03:01:15;2.90;;;2.90;;
19643;SDS011;9970;-36.854;174.870;2023-02-03T03:03:48;2.87;;;2.87;;
19643;SDS011;9970;-36.854;174.870;2023-02-03T03:06:24;2.93;;;2.93;;
19643;SDS011;9970;-36.854;174.870;2023-02-03T03:09:05;3.00;;;3.00;;
19643;SDS011;9970;-36.854;174.870;2023-02-03T03:11:44;3.27;;;3.27;;
19643;SDS011;9970;-36.854;174.870;2023-02-03T03:14:18;3.10;;;3.10;;
19643;SDS011;9970;-36.854;174.870;2023-02-03T03:17:01;3.20;;;3.20;;
19643;SDS011;9970;-36.854;174.870;2023-02-03T03:19:33;3.10;;;3.10;;
19643;SDS011;9970;-36.854;174.870;2023-02-03T03:22:08;3.20;;;3.20;;
19643;SDS011;9970;-36.854;174.870;2023-02-03T03:24:46;3.30;;;3.30;;
19643;SDS011;9970;-36.854;174.870;2023-02-03T03:27:23;3.20;;;3.20;;
19643;SDS011;9970;-36.854;174.870;2023-02-03T03:30:04;3.10;;;3.10;;
19643;SDS011;9970;-36.854;174.870;2023-02-03T03:32:32;3.10;;;3.10;;
19643;SDS011;9970;-36.854;174.870;2023-02-03T03:35:05;3.43;;;3.43;;
19643;SDS011;9970;-36.854;174.870;2023-02-03T03:37:56;3.10;;;3.10;;
19643;SDS011;9970;-36.854;174.870;2023-02-03T03:40:26;3.03;;;3.03;;
19643;SDS011;9970;-36.854;174.870;2023-02-03T03:43:10;3.30;;;3.30;;
19643;SDS011;9970;-36.854;174.870;2023-02-03T03:45:53;3.20;;;3.20;;
19643;SDS011;9970;-36.854;174.870;2023-02-03T03:48:29;3.20;;;3.20;;
19643;SDS011;9970;-36.854;174.870;2023-02-03T03:51:04;3.20;;;3.20;;
19643;SDS011;9970;-36.854;174.870;2023-02-03T03:53:40;3.17;;;3.17;;
19643;SDS011;9970;-36.854;174.870;2023-02-03T03:56:15;3.20;;;3.20;;
19643;SDS011;9970;-36.854;174.870;2023-02-03T03:58:49;3.10;;;3.10;;
19643;SDS011;9970;-36.854;174.870;2023-02-03T04:01:24;3.00;;;3.00;;
19643;SDS011;9970;-36.854;174.870;2023-02-03T04:03:59;3.00;;;3.00;;
19643;SDS011;9970;-36.854;174.870;2023-02-03T04:06:33;3.00;;;3.00;;
19643;SDS011;9970;-36.854;174.870;2023-02-03T04:09:07;3.00;;;3.00;;
19643;SDS011;9970;-36.854;174.870;2023-02-03T04:11:40;3.20;;;3.20;;
19643;SDS011;9970;-36.854;174.870;2023-02-03T04:14:34;2.93;;;2.93;;
19643;SDS011;9970;-36.854;174.870;2023-02-03T04:17:13;3.20;;;3.20;;
19643;SDS011;9970;-36.854;174.870;2023-02-03T04:19:48;3.40;;;3.40;;
19643;SDS011;9970;-36.854;174.870;2023-02-03T04:22:20;3.40;;;3.40;;
19643;SDS011;9970;-36.854;174.870;2023-02-03T04:24:53;3.30;;;3.30;;
19643;SDS011;9970;-36.854;174.870;2023-02-03T04:27:27;3.40;;;3.40;;
19643;SDS011;9970;-36.854;174.870;2023-02-03T04:30:00;3.40;;;3.40;;
19643;SDS011;9970;-36.854;174.870;2023-02-03T04:32:33;3.33;;;3.33;;
19643;SDS011;9970;-36.854;174.870;2023-02-03T04:35:06;3.50;;;3.50;;
19643;SDS011;9970;-36.854;174.870;2023-02-03T04:37:39;3.20;;;3.20;;
19643;SDS011;9970;-36.854;174.870;2023-02-03T04:40:12;3.20;;;3.20;;
19643;SDS011;9970;-36.854;174.870;2023-02-03T04:42:45;3.40;;;3.40;;
19643;SDS011;9970;-36.854;174.870;2023-02-03T04:45:18;3.30;;;3.30;;
19643;SDS011;9970;-36.854;174.870;2023-02-03T04:47:51;3.10;;;3.10;;
19643;SDS011;9970;-36.854;174.870;2023-02-03T04:50:24;3.20;;;3.20;;
19643;SDS011;9970;-36.854;174.870;2023-02-03T04:52:57;3.20;;;3.20;;
19643;SDS011;9970;-36.854;174.870;2023-02-03T04:55:29;3.40;;;3.40;;
19643;SDS011;9970;-36.854;174.870;2023-02-03T04:58:03;3.50;;;3.50;;
19643;SDS011;9970;-36.854;174.870;2023-02-03T05:00:37;3.60;;;3.60;;
19643;SDS011;9970;-36.854;174.870;2023-02-03T05:03:10;3.80;;;3.80;;
19643;SDS011;9970;-36.854;174.870;2023-02-03T05:05:44;3.50;;;3.50;;
19643;SDS011;9970;-36.854;174.870;2023-02-03T05:08:21;3.40;;;3.40;;
19643;SDS011;9970;-36.854;174.870;2023-02-03T05:10:54;3.40;;;3.40;;
19643;SDS011;9970;-36.854;174.870;2023-02-03T05:13:28;3.50;;;3.50;;
19643;SDS011;9970;-36.854;174.870;2023-02-03T05:16:01;3.50;;;3.50;;
19643;SDS011;9970;-36.854;174.870;2023-02-03T05:18:34;3.80;;;3.80;;
19643;SDS011;9970;-36.854;174.870;2023-02-03T05:21:07;3.60;;;3.60;;
19643;SDS011;9970;-36.854;174.870;2023-02-03T05:23:40;3.60;;;3.60;;
19643;SDS011;9970;-36.854;174.870;2023-02-03T05:26:13;3.50;;;3.50;;
19643;SDS011;9970;-36.854;174.870;2023-02-03T05:28:46;3.10;;;3.10;;
19643;SDS011;9970;-36.854;174.870;2023-02-03T05:31:20;3.10;;;3.10;;
19643;SDS011;9970;-36.854;174.870;2023-02-03T05:33:53;3.10;;;3.10;;
19643;SDS011;9970;-36.854;174.870;2023-02-03T05:36:25;3.30;;;3.30;;
19643;SDS011;9970;-36.854;174.870;2023-02-03T05:38:58;3.30;;;3.30;;
19643;SDS011;9970;-36.854;174.870;2023-02-03T05:41:31;3.20;;;3.20;;
19643;SDS011;9970;-36.854;174.870;2023-02-03T05:44:24;3.37;;;3.37;;
19643;SDS011;9970;-36.854;174.870;2023-02-03T05:47:02;3.40;;;3.40;;
19643;SDS011;9970;-36.854;174.870;2023-02-03T05:49:35;3.30;;;3.30;;
19643;SDS011;9970;-36.854;174.870;2023-02-03T05:52:08;3.13;;;3.13;;
19643;SDS011;9970;-36.854;174.870;2023-02-03T05:54:41;3.20;;;3.20;;
19643;SDS011;9970;-36.854;174.870;2023-02-03T05:57:14;3.20;;;3.20;;
19643;SDS011;9970;-36.854;174.870;2023-02-03T05:59:47;3.10;;;3.10;;
19643;SDS011;9970;-36.854;174.870;2023-02-03T06:02:21;3.30;;;3.30;;
19643;SDS011;9970;-36.854;174.870;2023-02-03T06:04:54;3.40;;;3.40;;
19643;SDS011;9970;-36.854;174.870;2023-02-03T06:07:27;3.40;;;3.40;;
19643;SDS011;9970;-36.854;174.870;2023-02-03T06:10:00;3.30;;;3.30;;
19643;SDS011;9970;-36.854;174.870;2023-02-03T06:12:33;3.50;;;3.50;;
19643;SDS011;9970;-36.854;174.870;2023-02-03T06:15:07;3.50;;;3.50;;
19643;SDS011;9970;-36.854;174.870;2023-02-03T06:17:43;3.40;;;3.40;;
19643;SDS011;9970;-36.854;174.870;2023-02-03T06:20:18;3.47;;;3.47;;
19643;SDS011;9970;-36.854;174.870;2023-02-03T06:22:51;3.30;;;3.30;;
19643;SDS011;9970;-36.854;174.870;2023-02-03T06:25:24;3.40;;;3.40;;
19643;SDS011;9970;-36.854;174.870;2023-02-03T06:27:57;3.60;;;3.60;;
19643;SDS011;9970;-36.854;174.870;2023-02-03T06:30:30;3.60;;;3.60;;
19643;SDS011;9970;-36.854;174.870;2023-02-03T06:33:03;3.50;;;3.50;;
19643;SDS011;9970;-36.854;174.870;2023-02-03T06:35:36;3.40;;;3.40;;
19643;SDS011;9970;-36.854;174.870;2023-02-03T06:38:09;3.30;;;3.30;;
19643;SDS011;9970;-36.854;174.870;2023-02-03T06:40:44;3.20;;;3.20;;
19643;SDS011;9970;-36.854;174.870;2023-02-03T06:43:19;3.10;;;3.10;;
19643;SDS011;9970;-36.854;174.870;2023-02-03T06:45:52;3.40;;;3.40;;
19643;SDS011;9970;-36.854;174.870;2023-02-03T06:48:25;3.50;;;3.50;;
19643;SDS011;9970;-36.854;174.870;2023-02-03T06:50:58;3.50;;;3.50;;
19643;SDS011;9970;-36.854;174.870;2023-02-03T06:53:31;3.40;;;3.40;;
19643;SDS011;9970;-36.854;174.870;2023-02-03T06:56:04;3.40;;;3.40;;
19643;SDS011;9970;-36.854;174.870;2023-02-03T06:58:37;3.47;;;3.47;;
19643;SDS011;9970;-36.854;174.870;2023-02-03T07:01:10;3.60;;;3.60;;
19643;SDS011;9970;-36.854;174.870;2023-02-03T07:03:44;3.60;;;3.60;;
19643;SDS011;9970;-36.854;174.870;2023-02-03T07:06:16;3.80;;;3.80;;
19643;SDS011;9970;-36.854;174.870;2023-02-03T07:08:49;3.80;;;3.80;;
19643;SDS011;9970;-36.854;174.870;2023-02-03T07:11:22;3.90;;;3.90;;
19643;SDS011;9970;-36.854;174.870;2023-02-03T07:13:55;3.90;;;3.90;;
19643;SDS011;9970;-36.854;174.870;2023-02-03T07:16:28;3.80;;;3.80;;
19643;SDS011;9970;-36.854;174.870;2023-02-03T07:19:02;3.80;;;3.80;;
19643;SDS011;9970;-36.854;174.870;2023-02-03T07:21:36;3.60;;;3.60;;
19643;SDS011;9970;-36.854;174.870;2023-02-03T07:24:09;3.90;;;3.90;;
19643;SDS011;9970;-36.854;174.870;2023-02-03T07:26:42;3.90;;;3.90;;
19643;SDS011;9970;-36.854;174.870;2023-02-03T07:29:15;3.70;;;3.70;;
19643;SDS011;9970;-36.854;174.870;2023-02-03T07:31:48;3.50;;;3.50;;
19643;SDS011;9970;-36.854;174.870;2023-02-03T07:34:21;3.60;;;3.60;;
19643;SDS011;9970;-36.854;174.870;2023-02-03T07:36:55;3.90;;;3.90;;
19643;SDS011;9970;-36.854;174.870;2023-02-03T07:39:27;3.50;;;3.50;;
19643;SDS011;9970;-36.854;174.870;2023-02-03T07:42:01;3.40;;;3.40;;
19643;SDS011;9970;-36.854;174.870;2023-02-03T07:44:34;3.33;;;3.33;;
19643;SDS011;9970;-36.854;174.870;2023-02-03T07:47:12;3.40;;;3.40;;
19643;SDS011;9970;-36.854;174.870;2023-02-03T07:49:44;3.60;;;3.60;;
19643;SDS011;9970;-36.854;174.870;2023-02-03T07:52:17;3.43;;;3.43;;
19643;SDS011;9970;-36.854;174.870;2023-02-03T07:54:55;3.40;;;3.40;;
19643;SDS011;9970;-36.854;174.870;2023-02-03T07:57:28;3.50;;;3.50;;
19643;SDS011;9970;-36.854;174.870;2023-02-03T08:00:01;3.50;;;3.50;;
19643;SDS011;9970;-36.854;174.870;2023-02-03T08:02:34;3.50;;;3.50;;
19643;SDS011;9970;-36.854;174.870;2023-02-03T08:05:08;3.60;;;3.60;;
19643;SDS011;9970;-36.854;174.870;2023-02-03T08:07:42;3.50;;;3.50;;
19643;SDS011;9970;-36.854;174.870;2023-02-03T08:10:15;3.50;;;3.50;;
19643;SDS011;9970;-36.854;174.870;2023-02-03T08:12:48;3.30;;;3.30;;
19643;SDS011;9970;-36.854;174.870;2023-02-03T08:15:22;3.30;;;3.30;;
19643;SDS011;9970;-36.854;174.870;2023-02-03T08:17:55;3.40;;;3.40;;
19643;SDS011;9970;-36.854;174.870;2023-02-03T08:20:27;3.30;;;3.30;;
19643;SDS011;9970;-36.854;174.870;2023-02-03T08:23:00;3.40;;;3.40;;
19643;SDS011;9970;-36.854;174.870;2023-02-03T08:25:33;3.40;;;3.40;;
19643;SDS011;9970;-36.854;174.870;2023-02-03T08:28:06;3.33;;;3.33;;
19643;SDS011;9970;-36.854;174.870;2023-02-03T08:30:39;3.40;;;3.40;;
19643;SDS011;9970;-36.854;174.870;2023-02-03T08:33:12;3.33;;;3.33;;
19643;SDS011;9970;-36.854;174.870;2023-02-03T08:35:45;3.50;;;3.50;;
19643;SDS011;9970;-36.854;174.870;2023-02-03T08:38:19;3.60;;;3.60;;
19643;SDS011;9970;-36.854;174.870;2023-02-03T08:40:52;3.80;;;3.80;;
19643;SDS011;9970;-36.854;174.870;2023-02-03T08:43:25;3.80;;;3.80;;
19643;SDS011;9970;-36.854;174.870;2023-02-03T08:46:01;3.53;;;3.53;;
19643;SDS011;9970;-36.854;174.870;2023-02-03T08:48:35;3.60;;;3.60;;
19643;SDS011;9970;-36.854;174.870;2023-02-03T08:51:11;3.60;;;3.60;;
19643;SDS011;9970;-36.854;174.870;2023-02-03T08:53:45;3.53;;;3.53;;
19643;SDS011;9970;-36.854;174.870;2023-02-03T08:56:18;3.50;;;3.50;;
19643;SDS011;9970;-36.854;174.870;2023-02-03T08:58:51;3.50;;;3.50;;
19643;SDS011;9970;-36.854;174.870;2023-02-03T09:01:25;3.90;;;3.90;;
19643;SDS011;9970;-36.854;174.870;2023-02-03T09:03:59;3.47;;;3.47;;
19643;SDS011;9970;-36.854;174.870;2023-02-03T09:06:37;3.60;;;3.60;;
19643;SDS011;9970;-36.854;174.870;2023-02-03T09:09:10;3.40;;;3.40;;
19643;SDS011;9970;-36.854;174.870;2023-02-03T09:11:43;3.70;;;3.70;;
19643;SDS011;9970;-36.854;174.870;2023-02-03T09:14:16;3.60;;;3.60;;
19643;SDS011;9970;-36.854;174.870;2023-02-03T09:16:49;3.50;;;3.50;;
19643;SDS011;9970;-36.854;174.870;2023-02-03T09:19:22;3.63;;;3.63;;
19643;SDS011;9970;-36.854;174.870;2023-02-03T09:21:55;3.30;;;3.30;;
19643;SDS011;9970;-36.854;174.870;2023-02-03T09:24:28;3.40;;;3.40;;
19643;SDS011;9970;-36.854;174.870;2023-02-03T09:27:00;3.60;;;3.60;;
19643;SDS011;9970;-36.854;174.870;2023-02-03T09:29:33;3.60;;;3.60;;
19643;SDS011;9970;-36.854;174.870;2023-02-03T09:32:06;3.60;;;3.60;;
19643;SDS011;9970;-36.854;174.870;2023-02-03T09:34:40;3.50;;;3.50;;
19643;SDS011;9970;-36.854;174.870;2023-02-03T09:37:15;3.40;;;3.40;;
19643;SDS011;9970;-36.854;174.870;2023-02-03T09:39:48;3.60;;;3.60;;
19643;SDS011;9970;-36.854;174.870;2023-02-03T09:45:15;3.30;;;3.30;;
19643;SDS011;9970;-36.854;174.870;2023-02-03T09:47:50;3.40;;;3.40;;
19643;SDS011;9970;-36.854;174.870;2023-02-03T09:50:25;3.50;;;3.50;;
19643;SDS011;9970;-36.854;174.870;2023-02-03T09:53:01;3.30;;;3.30;;
19643;SDS011;9970;-36.854;174.870;2023-02-03T09:58:16;3.40;;;3.40;;
19643;SDS011;9970;-36.854;174.870;2023-02-03T10:00:51;3.30;;;3.30;;
19643;SDS011;9970;-36.854;174.870;2023-02-03T10:03:35;3.50;;;3.50;;
19643;SDS011;9970;-36.854;174.870;2023-02-03T10:09:02;3.50;;;3.50;;
19643;SDS011;9970;-36.854;174.870;2023-02-03T10:22:56;3.30;;;3.30;;
19643;SDS011;9970;-36.854;174.870;2023-02-03T10:25:31;3.13;;;3.13;;
19643;SDS011;9970;-36.854;174.870;2023-02-03T10:28:20;3.47;;;3.47;;
19643;SDS011;9970;-36.854;174.870;2023-02-03T10:30:52;3.40;;;3.40;;
19643;SDS011;9970;-36.854;174.870;2023-02-03T10:33:30;3.50;;;3.50;;
19643;SDS011;9970;-36.854;174.870;2023-02-03T10:36:18;3.50;;;3.50;;
19643;SDS011;9970;-36.854;174.870;2023-02-03T10:41:31;3.90;;;3.90;;
19643;SDS011;9970;-36.854;174.870;2023-02-03T10:44:05;3.80;;;3.80;;
19643;SDS011;9970;-36.854;174.870;2023-02-03T10:46:40;3.90;;;3.90;;
19643;SDS011;9970;-36.854;174.870;2023-02-03T10:49:14;3.80;;;3.80;;
19643;SDS011;9970;-36.854;174.870;2023-02-03T10:51:49;3.90;;;3.90;;
19643;SDS011;9970;-36.854;174.870;2023-02-03T10:54:28;3.73;;;3.73;;
19643;SDS011;9970;-36.854;174.870;2023-02-03T10:57:03;3.80;;;3.80;;
19643;SDS011;9970;-36.854;174.870;2023-02-03T10:59:39;3.90;;;3.90;;
19643;SDS011;9970;-36.854;174.870;2023-02-03T11:02:22;3.70;;;3.70;;
19643;SDS011;9970;-36.854;174.870;2023-02-03T11:07:50;3.70;;;3.70;;
19643;SDS011;9970;-36.854;174.870;2023-02-03T11:10:26;3.70;;;3.70;;
19643;SDS011;9970;-36.854;174.870;2023-02-03T11:15:44;3.90;;;3.90;;
19643;SDS011;9970;-36.854;174.870;2023-02-03T11:21:22;3.70;;;3.70;;
19643;SDS011;9970;-36.854;174.870;2023-02-03T11:26:59;3.80;;;3.80;;
19643;SDS011;9970;-36.854;174.870;2023-02-03T11:29:21;3.80;;;3.80;;
19643;SDS011;9970;-36.854;174.870;2023-02-03T11:31:58;3.90;;;3.90;;
19643;SDS011;9970;-36.854;174.870;2023-02-03T11:34:30;3.60;;;3.60;;
19643;SDS011;9970;-36.854;174.870;2023-02-03T11:37:27;3.57;;;3.57;;
19643;SDS011;9970;-36.854;174.870;2023-02-03T11:42:57;3.90;;;3.90;;
19643;SDS011;9970;-36.854;174.870;2023-02-03T11:48:17;4.00;;;4.00;;
19643;SDS011;9970;-36.854;174.870;2023-02-03T11:51:30;4.00;;;4.00;;
19643;SDS011;9970;-36.854;174.870;2023-02-03T11:54:10;3.90;;;3.90;;
19643;SDS011;9970;-36.854;174.870;2023-02-03T11:56:50;4.07;;;4.07;;
19643;SDS011;9970;-36.854;174.870;2023-02-03T11:59:39;4.20;;;4.20;;
19643;SDS011;9970;-36.854;174.870;2023-02-03T12:05:16;4.20;;;4.20;;
19643;SDS011;9970;-36.854;174.870;2023-02-03T12:07:53;4.40;;;4.40;;
19643;SDS011;9970;-36.854;174.870;2023-02-03T12:10:37;4.50;;;4.50;;
19643;SDS011;9970;-36.854;174.870;2023-02-03T12:13:25;4.40;;;4.40;;
19643;SDS011;9970;-36.854;174.870;2023-02-03T12:16:04;4.40;;;4.40;;
19643;SDS011;9970;-36.854;174.870;2023-02-03T12:26:57;4.70;;;4.70;;
19643;SDS011;9970;-36.854;174.870;2023-02-03T12:29:39;4.80;;;4.80;;
19643;SDS011;9970;-36.854;174.870;2023-02-03T12:32:31;4.70;;;4.70;;
19643;SDS011;9970;-36.854;174.870;2023-02-03T12:35:16;4.77;;;4.77;;
19643;SDS011;9970;-36.854;174.870;2023-02-03T12:43:24;4.70;;;4.70;;
19643;SDS011;9970;-36.854;174.870;2023-02-03T12:46:01;4.50;;;4.50;;
19643;SDS011;9970;-36.854;174.870;2023-02-03T12:53:58;4.50;;;4.50;;
19643;SDS011;9970;-36.854;174.870;2023-02-03T12:56:40;4.40;;;4.40;;
19643;SDS011;9970;-36.854;174.870;2023-02-03T12:59:14;4.50;;;4.50;;
19643;SDS011;9970;-36.854;174.870;2023-02-03T13:01:48;4.50;;;4.50;;
19643;SDS011;9970;-36.854;174.870;2023-02-03T13:04:28;4.40;;;4.40;;
19643;SDS011;9970;-36.854;174.870;2023-02-03T13:07:07;4.50;;;4.50;;
19643;SDS011;9970;-36.854;174.870;2023-02-03T13:15:21;4.80;;;4.80;;
19643;SDS011;9970;-36.854;174.870;2023-02-03T13:20:33;5.00;;;5.00;;
19643;SDS011;9970;-36.854;174.870;2023-02-03T13:23:10;4.90;;;4.90;;
19643;SDS011;9970;-36.854;174.870;2023-02-03T13:25:57;4.97;;;4.97;;
19643;SDS011;9970;-36.854;174.870;2023-02-03T13:37:10;5.10;;;5.10;;
19643;SDS011;9970;-36.854;174.870;2023-02-03T13:42:51;5.00;;;5.00;;
19643;SDS011;9970;-36.854;174.870;2023-02-03T13:45:35;4.70;;;4.70;;
19643;SDS011;9970;-36.854;174.870;2023-02-03T13:50:59;4.70;;;4.70;;
19643;SDS011;9970;-36.854;174.870;2023-02-03T13:53:38;4.90;;;4.90;;
19643;SDS011;9970;-36.854;174.870;2023-02-03T13:59:00;4.90;;;4.90;;
19643;SDS011;9970;-36.854;174.870;2023-02-03T14:01:36;4.80;;;4.80;;
19643;SDS011;9970;-36.854;174.870;2023-02-03T14:07:02;4.80;;;4.80;;
19643;SDS011;9970;-36.854;174.870;2023-02-03T14:09:37;4.80;;;4.80;;
19643;SDS011;9970;-36.854;174.870;2023-02-03T14:12:30;4.90;;;4.90;;
19643;SDS011;9970;-36.854;174.870;2023-02-03T14:23:06;4.90;;;4.90;;
19643;SDS011;9970;-36.854;174.870;2023-02-03T14:25:43;5.23;;;5.23;;
19643;SDS011;9970;-36.854;174.870;2023-02-03T14:28:18;5.20;;;5.20;;
19643;SDS011;9970;-36.854;174.870;2023-02-03T14:53:53;5.10;;;5.10;;
19643;SDS011;9970;-36.854;174.870;2023-02-03T14:59:36;5.10;;;5.10;;
19643;SDS011;9970;-36.854;174.870;2023-02-03T15:02:16;5.10;;;5.10;;
19643;SDS011;9970;-36.854;174.870;2023-02-03T15:07:51;5.20;;;5.20;;
19643;SDS011;9970;-36.854;174.870;2023-02-03T15:10:46;5.20;;;5.20;;
19643;SDS011;9970;-36.854;174.870;2023-02-03T15:13:02;5.20;;;5.20;;
19643;SDS011;9970;-36.854;174.870;2023-02-03T15:15:35;5.10;;;5.10;;
19643;SDS011;9970;-36.854;174.870;2023-02-03T15:18:28;5.10;;;5.10;;
19643;SDS011;9970;-36.854;174.870;2023-02-03T15:21:03;5.00;;;5.00;;
19643;SDS011;9970;-36.854;174.870;2023-02-03T15:23:41;5.10;;;5.10;;
19643;SDS011;9970;-36.854;174.870;2023-02-03T15:26:12;5.30;;;5.30;;
19643;SDS011;9970;-36.854;174.870;2023-02-03T15:28:59;5.27;;;5.27;;
19643;SDS011;9970;-36.854;174.870;2023-02-03T15:31:42;5.20;;;5.20;;
19643;SDS011;9970;-36.854;174.870;2023-02-03T15:34:38;5.20;;;5.20;;
19643;SDS011;9970;-36.854;174.870;2023-02-03T15:37:20;5.50;;;5.50;;
19643;SDS011;9970;-36.854;174.870;2023-02-03T15:45:14;5.10;;;5.10;;
19643;SDS011;9970;-36.854;174.870;2023-02-03T15:47:46;5.30;;;5.30;;
19643;SDS011;9970;-36.854;174.870;2023-02-03T15:50:31;5.10;;;5.10;;
19643;SDS011;9970;-36.854;174.870;2023-02-03T15:53:06;5.00;;;5.00;;
19643;SDS011;9970;-36.854;174.870;2023-02-03T15:55:42;5.00;;;5.00;;
19643;SDS011;9970;-36.854;174.870;2023-02-03T15:58:39;5.00;;;5.00;;
19643;SDS011;9970;-36.854;174.870;2023-02-03T16:01:00;5.10;;;5.10;;
19643;SDS011;9970;-36.854;174.870;2023-02-03T16:03:35;4.90;;;4.90;;
19643;SDS011;9970;-36.854;174.870;2023-02-03T16:06:30;5.00;;;5.00;;
19643;SDS011;9970;-36.854;174.870;2023-02-03T16:08:45;5.10;;;5.10;;
19643;SDS011;9970;-36.854;174.870;2023-02-03T16:11:24;5.10;;;5.10;;
19643;SDS011;9970;-36.854;174.870;2023-02-03T16:14:21;4.90;;;4.90;;
19643;SDS011;9970;-36.854;174.870;2023-02-03T16:16:50;5.10;;;5.10;;
19643;SDS011;9970;-36.854;174.870;2023-02-03T16:19:28;5.20;;;5.20;;
19643;SDS011;9970;-36.854;174.870;2023-02-03T16:22:02;5.20;;;5.20;;
19643;SDS011;9970;-36.854;174.870;2023-02-03T16:24:37;5.10;;;5.10;;
19643;SDS011;9970;-36.854;174.870;2023-02-03T16:36:08;4.90;;;4.90;;
19643;SDS011;9970;-36.854;174.870;2023-02-03T16:38:54;5.50;;;5.50;;
19643;SDS011;9970;-36.854;174.870;2023-02-03T16:41:45;5.30;;;5.30;;
19643;SDS011;9970;-36.854;174.870;2023-02-03T16:44:35;5.30;;;5.30;;
19643;SDS011;9970;-36.854;174.870;2023-02-03T16:47:29;5.40;;;5.40;;
19643;SDS011;9970;-36.854;174.870;2023-02-03T16:50:20;5.60;;;5.60;;
19643;SDS011;9970;-36.854;174.870;2023-02-03T16:53:12;5.50;;;5.50;;
19643;SDS011;9970;-36.854;174.870;2023-02-03T16:55:50;5.70;;;5.70;;
19643;SDS011;9970;-36.854;174.870;2023-02-03T16:58:23;5.60;;;5.60;;
19643;SDS011;9970;-36.854;174.870;2023-02-03T17:00:57;5.60;;;5.60;;
19643;SDS011;9970;-36.854;174.870;2023-02-03T17:03:38;5.50;;;5.50;;
19643;SDS011;9970;-36.854;174.870;2023-02-03T17:06:11;5.60;;;5.60;;
19643;SDS011;9970;-36.854;174.870;2023-02-03T17:08:40;5.60;;;5.60;;
19643;SDS011;9970;-36.854;174.870;2023-02-03T17:11:19;5.73;;;5.73;;
19643;SDS011;9970;-36.854;174.870;2023-02-03T17:13:58;5.80;;;5.80;;
19643;SDS011;9970;-36.854;174.870;2023-02-03T17:16:32;5.90;;;5.90;;
19643;SDS011;9970;-36.854;174.870;2023-02-03T17:19:05;6.00;;;6.00;;
19643;SDS011;9970;-36.854;174.870;2023-02-03T17:21:40;6.00;;;6.00;;
19643;SDS011;9970;-36.854;174.870;2023-02-03T17:24:29;6.00;;;6.00;;
19643;SDS011;9970;-36.854;174.870;2023-02-03T17:27:02;5.90;;;5.90;;
19643;SDS011;9970;-36.854;174.870;2023-02-03T17:29:35;5.50;;;5.50;;
19643;SDS011;9970;-36.854;174.870;2023-02-03T17:32:08;5.90;;;5.90;;
19643;SDS011;9970;-36.854;174.870;2023-02-03T17:34:49;5.47;;;5.47;;
19643;SDS011;9970;-36.854;174.870;2023-02-03T17:37:22;4.80;;;4.80;;
19643;SDS011;9970;-36.854;174.870;2023-02-03T17:39:55;4.80;;;4.80;;
19643;SDS011;9970;-36.854;174.870;2023-02-03T17:42:45;4.70;;;4.70;;
19643;SDS011;9970;-36.854;174.870;2023-02-03T17:45:38;5.10;;;5.10;;
19643;SDS011;9970;-36.854;174.870;2023-02-03T17:48:26;5.20;;;5.20;;
19643;SDS011;9970;-36.854;174.870;2023-02-03T17:51:16;5.70;;;5.70;;
19643;SDS011;9970;-36.854;174.870;2023-02-03T17:54:05;5.70;;;5.70;;
19643;SDS011;9970;-36.854;174.870;2023-02-03T17:56:40;5.80;;;5.80;;
19643;SDS011;9970;-36.854;174.870;2023-02-03T17:59:32;5.80;;;5.80;;
19643;SDS011;9970;-36.854;174.870;2023-02-03T18:02:07;6.10;;;6.10;;
19643;SDS011;9970;-36.854;174.870;2023-02-03T18:04:39;5.90;;;5.90;;